createdAt,value
2023-03-06T00:00:33.216Z,82.94
2023-03-06T00:01:33.219Z,83.05
2023-03-06T00:02:33.178Z,82.98
2023-03-06T00:03:33.183Z,82.98
2023-03-06T00:04:33.165Z,83.09
2023-03-06T00:05:33.183Z,83.19
2023-03-06T00:06:33.210Z,83.30
2023-03-06T00:07:33.164Z,83.51
2023-03-06T00:08:33.791Z,83.51
2023-03-06T00:09:33.102Z,83.62
2023-03-06T00:10:33.111Z,83.94
2023-03-06T00:11:33.107Z,83.73
2023-03-06T00:12:33.159Z,83.73
2023-03-06T00:13:33.081Z,83.73
2023-03-06T00:14:33.054Z,83.62
2023-03-06T00:15:33.046Z,83.40
2023-03-06T00:16:33.089Z,83.62
2023-03-06T00:17:33.051Z,84.05
2023-03-06T00:18:33.037Z,84.36
2023-03-06T00:19:33.083Z,84.69
2023-03-06T00:20:33.009Z,84.90
2023-03-06T00:21:32.991Z,84.58
2023-03-06T00:22:32.963Z,84.36
2023-03-06T00:23:32.984Z,84.36
2023-03-06T00:24:33.028Z,84.36
2023-03-06T00:25:32.946Z,84.90
2023-03-06T00:26:32.945Z,84.90
2023-03-06T00:27:32.945Z,84.90
2023-03-06T00:28:32.964Z,84.69
2023-03-06T00:29:32.893Z,84.69
2023-03-06T00:30:33.147Z,85.22
2023-03-06T00:31:32.944Z,85.22
2023-03-06T00:32:32.938Z,85.11
2023-03-06T00:33:32.949Z,84.90
2023-03-06T00:34:32.841Z,84.90
2023-03-06T00:35:32.963Z,84.58
2023-03-06T00:36:32.828Z,84.47
2023-03-06T00:37:32.826Z,85.00
2023-03-06T00:38:32.938Z,85.32
2023-03-06T00:39:33.021Z,85.53
2023-03-06T00:40:32.828Z,85.50
2023-03-06T00:41:32.767Z,85.28
2023-03-06T00:42:32.794Z,85.22
2023-03-06T00:43:32.747Z,85.50
2023-03-06T00:44:32.781Z,85.61
2023-03-06T00:45:32.802Z,85.50
2023-03-06T00:46:32.716Z,85.71
2023-03-06T00:47:32.788Z,85.93
2023-03-06T00:48:32.861Z,85.93
2023-03-06T00:49:32.683Z,85.61
2023-03-06T00:50:32.693Z,85.82
2023-03-06T00:51:32.679Z,85.75
2023-03-06T00:52:32.700Z,85.53
2023-03-06T00:53:32.623Z,85.32
2023-03-06T00:54:32.751Z,85.11
2023-03-06T00:55:32.632Z,85.64
2023-03-06T00:56:32.616Z,85.32
2023-03-06T00:57:32.584Z,85.11
2023-03-06T00:58:32.598Z,85.11
2023-03-06T00:59:32.652Z,85.11
2023-03-06T01:00:32.602Z,85.11
2023-03-06T01:01:32.554Z,85.43
2023-03-06T01:02:32.762Z,85.75
2023-03-06T01:03:32.625Z,85.75
2023-03-06T01:04:32.619Z,85.32
2023-03-06T01:05:32.579Z,85.11
2023-03-06T01:06:32.612Z,85.22
2023-03-06T01:07:32.528Z,85.22
2023-03-06T01:08:32.488Z,85.32
2023-03-06T01:09:32.498Z,85.32
2023-03-06T01:10:32.458Z,84.90
2023-03-06T01:11:32.439Z,84.47
2023-03-06T01:12:32.424Z,84.90
2023-03-06T01:13:32.479Z,85.11
2023-03-06T01:14:32.571Z,85.53
2023-03-06T01:15:32.419Z,85.43
2023-03-06T01:16:32.675Z,85.00
2023-03-06T01:17:32.410Z,84.79
2023-03-06T01:18:32.421Z,84.58
2023-03-06T01:19:33.323Z,84.47
2023-03-06T01:20:32.350Z,84.15
2023-03-06T01:21:32.354Z,84.36
2023-03-06T01:22:32.335Z,84.79
2023-03-06T01:23:32.333Z,84.69
2023-03-06T01:24:32.315Z,84.47
2023-03-06T01:25:32.298Z,84.79
2023-03-06T01:26:32.437Z,85.22
2023-03-06T01:27:32.299Z,85.32
2023-03-06T01:28:32.265Z,85.22
2023-03-06T01:29:32.263Z,85.11
2023-03-06T01:30:32.509Z,85.22
2023-03-06T01:31:32.330Z,85.43
2023-03-06T01:32:32.306Z,85.61
2023-03-06T01:33:32.504Z,85.82
2023-03-06T01:34:32.265Z,85.82
2023-03-06T01:35:32.317Z,85.93
2023-03-06T01:36:32.296Z,85.82
2023-03-06T01:37:32.201Z,85.82
2023-03-06T01:38:32.497Z,85.71
2023-03-06T01:39:32.239Z,85.71
2023-03-06T01:40:32.170Z,85.32
2023-03-06T01:41:32.115Z,85.43
2023-03-06T01:42:32.295Z,85.32
2023-03-06T01:43:32.105Z,85.00
2023-03-06T01:44:32.115Z,84.90
2023-03-06T01:45:32.161Z,84.79
2023-03-06T01:46:32.077Z,84.79
2023-03-06T01:47:32.059Z,84.79
2023-03-06T01:48:32.049Z,85.00
2023-03-06T01:49:32.076Z,85.00
2023-03-06T01:50:32.056Z,85.15
2023-03-06T01:51:32.027Z,85.47
2023-03-06T01:52:32.012Z,85.47
2023-03-06T01:53:31.989Z,85.47
2023-03-06T01:54:31.981Z,85.58
2023-03-06T01:55:31.966Z,85.58
2023-03-06T01:56:32.010Z,85.47
2023-03-06T01:57:31.954Z,85.68
2023-03-06T01:58:31.954Z,85.47
2023-03-06T01:59:31.970Z,85.79
2023-03-06T02:00:31.918Z,85.89
2023-03-06T02:01:31.971Z,86.00
2023-03-06T02:02:31.996Z,86.00
2023-03-06T02:03:31.904Z,86.11
2023-03-06T02:04:31.891Z,86.21
2023-03-06T02:05:31.854Z,86.32
2023-03-06T02:06:31.858Z,86.32
2023-03-06T02:07:31.854Z,86.43
2023-03-06T02:08:31.862Z,86.96
2023-03-06T02:09:31.841Z,86.75
2023-03-06T02:10:31.815Z,86.85
2023-03-06T02:11:31.822Z,86.96
2023-03-06T02:12:31.797Z,87.38
2023-03-06T02:13:31.811Z,87.38
2023-03-06T02:14:31.778Z,87.18
2023-03-06T02:15:31.778Z,86.85
2023-03-06T02:16:31.902Z,87.07
2023-03-06T02:17:31.757Z,87.28
2023-03-06T02:18:31.764Z,87.49
2023-03-06T02:19:31.720Z,87.60
2023-03-06T02:20:31.711Z,87.60
2023-03-06T02:21:31.698Z,87.49
2023-03-06T02:22:32.494Z,87.07
2023-03-06T02:23:31.705Z,86.64
2023-03-06T02:24:31.674Z,86.75
2023-03-06T02:25:31.671Z,86.96
2023-03-06T02:26:31.659Z,87.28
2023-03-06T02:27:31.642Z,87.18
2023-03-06T02:28:31.636Z,87.38
2023-03-06T02:29:31.639Z,87.38
2023-03-06T02:30:31.605Z,87.07
2023-03-06T02:31:31.613Z,87.18
2023-03-06T02:32:31.643Z,87.28
2023-03-06T02:33:31.579Z,87.49
2023-03-06T02:34:31.568Z,87.71
2023-03-06T02:35:31.595Z,88.02
2023-03-06T02:36:31.536Z,87.71
2023-03-06T02:37:31.540Z,87.46
2023-03-06T02:38:31.553Z,87.38
2023-03-06T02:39:31.548Z,87.38
2023-03-06T02:40:31.492Z,87.60
2023-03-06T02:41:31.487Z,87.56
2023-03-06T02:42:31.496Z,87.49
2023-03-06T02:43:31.477Z,87.18
2023-03-06T02:44:31.466Z,86.96
2023-03-06T02:45:31.511Z,87.18
2023-03-06T02:46:31.511Z,87.28
2023-03-06T02:47:31.430Z,87.38
2023-03-06T02:48:31.450Z,87.60
2023-03-06T02:49:31.399Z,87.60
2023-03-06T02:50:31.468Z,87.60
2023-03-06T02:51:31.402Z,87.49
2023-03-06T02:52:31.368Z,87.38
2023-03-06T02:53:31.368Z,87.13
2023-03-06T02:54:31.363Z,87.24
2023-03-06T02:55:31.331Z,86.85
2023-03-06T02:56:31.352Z,86.82
2023-03-06T02:57:31.324Z,86.60
2023-03-06T02:58:31.313Z,86.60
2023-03-06T02:59:31.301Z,86.60
2023-03-06T03:00:31.270Z,86.71
2023-03-06T03:01:31.352Z,86.60
2023-03-06T03:02:31.263Z,86.60
2023-03-06T03:03:31.268Z,86.71
2023-03-06T03:04:31.252Z,86.71
2023-03-06T03:05:31.259Z,86.71
2023-03-06T03:06:31.240Z,86.60
2023-03-06T03:07:31.210Z,86.71
2023-03-06T03:08:31.198Z,86.71
2023-03-06T03:09:31.182Z,86.49
2023-03-06T03:10:31.169Z,86.60
2023-03-06T03:11:31.192Z,86.39
2023-03-06T03:12:31.145Z,86.29
2023-03-06T03:13:31.169Z,86.18
2023-03-06T03:14:31.145Z,86.71
2023-03-06T03:15:31.132Z,86.92
2023-03-06T03:16:31.139Z,86.82
2023-03-06T03:17:31.127Z,86.82
2023-03-06T03:18:31.092Z,86.39
2023-03-06T03:19:31.079Z,86.49
2023-03-06T03:20:31.128Z,86.39
2023-03-06T03:21:31.067Z,86.49
2023-03-06T03:22:31.072Z,86.71
2023-03-06T03:23:31.038Z,86.49
2023-03-06T03:24:31.051Z,86.60
2023-03-06T03:25:31.026Z,86.60
2023-03-06T03:26:31.032Z,86.82
2023-03-06T03:27:31.002Z,86.71
2023-03-06T03:28:30.969Z,86.92
2023-03-06T03:29:30.961Z,86.71
2023-03-06T03:30:30.964Z,86.60
2023-03-06T03:31:31.032Z,86.39
2023-03-06T03:32:30.995Z,86.29
2023-03-06T03:33:30.942Z,86.39
2023-03-06T03:34:30.924Z,86.29
2023-03-06T03:35:30.921Z,86.29
2023-03-06T03:36:30.901Z,86.60
2023-03-06T03:37:30.915Z,86.71
2023-03-06T03:38:30.879Z,86.82
2023-03-06T03:39:30.893Z,86.71
2023-03-06T03:40:30.894Z,86.71
2023-03-06T03:41:30.853Z,86.82
2023-03-06T03:42:30.842Z,86.82
2023-03-06T03:43:30.827Z,86.82
2023-03-06T03:44:30.841Z,86.71
2023-03-06T03:45:30.799Z,86.60
2023-03-06T03:46:30.817Z,86.49
2023-03-06T03:47:30.797Z,86.29
2023-03-06T03:48:30.781Z,86.18
2023-03-06T03:49:30.805Z,86.29
2023-03-06T03:50:30.742Z,86.29
2023-03-06T03:51:30.756Z,86.39
2023-03-06T03:52:30.718Z,86.18
2023-03-06T03:53:30.733Z,85.96
2023-03-06T03:54:30.720Z,85.75
2023-03-06T03:55:30.694Z,86.07
2023-03-06T03:56:30.697Z,86.29
2023-03-06T03:57:30.682Z,85.96
2023-03-06T03:58:30.674Z,85.96
2023-03-06T03:59:30.695Z,86.60
2023-03-06T04:00:30.633Z,86.82
2023-03-06T04:01:30.669Z,86.18
2023-03-06T04:02:30.624Z,85.96
2023-03-06T04:03:30.618Z,86.07
2023-03-06T04:04:30.636Z,86.18
2023-03-06T04:05:30.599Z,85.86
2023-03-06T04:06:30.590Z,85.86
2023-03-06T04:07:30.590Z,85.53
2023-03-06T04:08:30.552Z,85.75
2023-03-06T04:09:30.534Z,85.86
2023-03-06T04:10:30.546Z,85.75
2023-03-06T04:11:30.531Z,85.75
2023-03-06T04:12:30.520Z,85.89
2023-03-06T04:13:30.506Z,85.79
2023-03-06T04:14:30.551Z,85.89
2023-03-06T04:15:30.500Z,85.86
2023-03-06T04:16:30.555Z,86.07
2023-03-06T04:17:30.457Z,86.07
2023-03-06T04:18:30.451Z,86.11
2023-03-06T04:19:30.439Z,86.39
2023-03-06T04:20:30.472Z,86.39
2023-03-06T04:21:30.433Z,86.39
2023-03-06T04:22:30.409Z,86.71
2023-03-06T04:23:30.407Z,87.03
2023-03-06T04:24:30.382Z,87.03
2023-03-06T04:25:30.407Z,87.13
2023-03-06T04:26:30.389Z,87.18
2023-03-06T04:27:30.363Z,87.28
2023-03-06T04:28:30.354Z,87.38
2023-03-06T04:29:30.345Z,87.38
2023-03-06T04:30:30.331Z,87.49
2023-03-06T04:31:30.377Z,87.71
2023-03-06T04:32:30.427Z,87.92
2023-03-06T04:33:30.306Z,88.02
2023-03-06T04:34:30.279Z,88.13
2023-03-06T04:35:30.280Z,88.35
2023-03-06T04:36:30.268Z,88.35
2023-03-06T04:37:30.335Z,88.35
2023-03-06T04:38:30.235Z,88.13
2023-03-06T04:39:30.264Z,88.56
2023-03-06T04:40:30.220Z,88.67
2023-03-06T04:41:30.231Z,88.77
2023-03-06T04:42:30.199Z,88.88
2023-03-06T04:43:30.182Z,88.77
2023-03-06T04:44:30.196Z,88.77
2023-03-06T04:45:30.202Z,88.98
2023-03-06T04:46:30.160Z,89.41
2023-03-06T04:47:30.146Z,89.31
2023-03-06T04:48:30.129Z,89.31
2023-03-06T04:49:30.165Z,89.09
2023-03-06T04:50:30.130Z,89.09
2023-03-06T04:51:30.108Z,89.09
2023-03-06T04:52:30.092Z,89.09
2023-03-06T04:53:30.082Z,88.77
2023-03-06T04:54:30.068Z,88.77
2023-03-06T04:55:30.078Z,88.67
2023-03-06T04:56:30.044Z,88.77
2023-03-06T04:57:30.037Z,88.56
2023-03-06T04:58:30.045Z,88.35
2023-03-06T04:59:30.027Z,88.67
2023-03-06T05:00:30.119Z,88.81
2023-03-06T05:01:30.000Z,88.88
2023-03-06T05:02:30.037Z,88.88
2023-03-06T05:03:29.977Z,88.71
2023-03-06T05:04:29.976Z,88.60
2023-03-06T05:05:30.059Z,88.71
2023-03-06T05:06:29.963Z,88.81
2023-03-06T05:07:29.928Z,88.81
2023-03-06T05:08:29.929Z,89.03
2023-03-06T05:09:29.913Z,89.03
2023-03-06T05:10:29.890Z,89.03
2023-03-06T05:11:29.910Z,89.13
2023-03-06T05:12:29.882Z,88.92
2023-03-06T05:13:29.862Z,88.81
2023-03-06T05:14:29.849Z,88.60
2023-03-06T05:15:29.844Z,88.49
2023-03-06T05:16:29.869Z,88.28
2023-03-06T05:17:29.850Z,88.49
2023-03-06T05:18:29.814Z,88.60
2023-03-06T05:19:29.802Z,88.60
2023-03-06T05:20:29.784Z,88.75
2023-03-06T05:21:29.810Z,88.64
2023-03-06T05:22:29.767Z,88.64
2023-03-06T05:23:29.770Z,88.64
2023-03-06T05:24:29.747Z,88.75
2023-03-06T05:25:29.753Z,88.85
2023-03-06T05:26:29.750Z,88.85
2023-03-06T05:27:29.733Z,88.96
2023-03-06T05:28:29.752Z,88.96
2023-03-06T05:29:29.706Z,89.11
2023-03-06T05:30:29.695Z,89.21
2023-03-06T05:31:29.717Z,89.21
2023-03-06T05:32:29.710Z,89.42
2023-03-06T05:33:29.688Z,89.42
2023-03-06T05:34:29.639Z,89.53
2023-03-06T05:35:29.690Z,89.64
2023-03-06T05:36:29.627Z,89.75
2023-03-06T05:37:29.614Z,89.85
2023-03-06T05:38:29.627Z,89.89
2023-03-06T05:39:29.581Z,90.00
2023-03-06T05:40:29.575Z,90.11
2023-03-06T05:41:29.579Z,90.11
2023-03-06T05:42:29.592Z,90.21
2023-03-06T05:43:29.564Z,90.32
2023-03-06T05:44:29.570Z,90.32
2023-03-06T05:45:29.523Z,90.42
2023-03-06T05:46:29.514Z,90.64
2023-03-06T05:47:29.605Z,90.64
2023-03-06T05:48:29.501Z,90.75
2023-03-06T05:49:29.494Z,90.85
2023-03-06T05:50:29.497Z,91.06
2023-03-06T05:51:29.499Z,91.06
2023-03-06T05:52:29.462Z,90.96
2023-03-06T05:53:29.452Z,91.06
2023-03-06T05:54:29.442Z,91.06
2023-03-06T05:55:29.429Z,91.06
2023-03-06T05:56:29.435Z,90.96
2023-03-06T05:57:29.434Z,90.96
2023-03-06T05:58:29.397Z,90.96
2023-03-06T05:59:29.392Z,90.85
2023-03-06T06:00:29.374Z,90.85
2023-03-06T06:01:29.397Z,90.96
2023-03-06T06:02:29.424Z,90.96
2023-03-06T06:03:29.373Z,90.96
2023-03-06T06:04:29.405Z,90.89
2023-03-06T06:05:29.315Z,90.85
2023-03-06T06:06:29.335Z,90.89
2023-03-06T06:07:29.314Z,90.89
2023-03-06T06:08:29.311Z,90.89
2023-03-06T06:09:29.311Z,91.00
2023-03-06T06:10:29.252Z,91.11
2023-03-06T06:11:29.267Z,91.11
2023-03-06T06:12:29.258Z,91.00
2023-03-06T06:13:29.294Z,90.79
2023-03-06T06:14:29.235Z,90.75
2023-03-06T06:15:29.233Z,90.64
2023-03-06T06:16:29.201Z,90.64
2023-03-06T06:17:29.292Z,90.53
2023-03-06T06:18:29.654Z,90.53
2023-03-06T06:19:30.179Z,90.32
2023-03-06T06:20:29.996Z,90.32
2023-03-06T06:21:29.155Z,90.11
2023-03-06T06:22:29.172Z,90.00
2023-03-06T06:23:30.132Z,90.00
2023-03-06T06:24:29.175Z,90.00
2023-03-06T06:25:29.121Z,89.89
2023-03-06T06:26:29.089Z,90.00
2023-03-06T06:27:29.085Z,89.89
2023-03-06T06:28:29.096Z,89.89
2023-03-06T06:29:29.085Z,90.00
2023-03-06T06:30:29.049Z,90.21
2023-03-06T06:31:29.106Z,90.32
2023-03-06T06:32:29.110Z,90.32
2023-03-06T06:33:29.026Z,90.21
2023-03-06T06:34:29.048Z,90.00
2023-03-06T06:35:29.048Z,89.83
2023-03-06T06:36:28.991Z,89.94
2023-03-06T06:37:28.985Z,90.04
2023-03-06T06:38:29.852Z,89.94
2023-03-06T06:39:29.002Z,89.61
2023-03-06T06:40:28.946Z,89.61
2023-03-06T06:41:54.989Z,89.61
2023-03-06T06:42:34.601Z,89.83
2023-03-06T06:43:28.921Z,89.94
2023-03-06T06:44:28.923Z,89.94
2023-03-06T06:45:28.927Z,89.94
2023-03-06T06:47:28.987Z,89.72
2023-03-06T06:48:28.876Z,89.61
2023-03-06T06:49:28.851Z,89.61
2023-03-06T06:50:28.857Z,89.51
2023-03-06T06:51:28.829Z,89.61
2023-03-06T06:52:29.656Z,89.72
2023-03-06T06:53:28.830Z,89.83
2023-03-06T06:54:28.839Z,89.94
2023-03-06T06:55:28.796Z,89.94
2023-03-06T06:56:28.787Z,89.94
2023-03-06T06:57:28.782Z,89.94
2023-03-06T06:58:28.758Z,89.83
2023-03-06T06:59:28.746Z,89.47
2023-03-06T07:00:28.852Z,89.29
2023-03-06T07:01:28.785Z,89.04
2023-03-06T07:02:28.752Z,89.04
2023-03-06T07:03:28.727Z,89.04
2023-03-06T07:04:28.694Z,88.93
2023-03-06T07:05:28.706Z,88.61
2023-03-06T07:06:28.673Z,88.29
2023-03-06T07:07:28.680Z,88.08
2023-03-06T07:08:28.668Z,88.08
2023-03-06T07:09:28.650Z,87.82
2023-03-06T07:10:28.716Z,87.82
2023-03-06T07:11:28.638Z,87.82
2023-03-06T07:12:28.630Z,87.61
2023-03-06T07:13:28.608Z,87.61
2023-03-06T07:14:28.605Z,87.61
2023-03-06T07:15:28.633Z,87.61
2023-03-06T07:16:28.578Z,87.51
2023-03-06T07:17:28.575Z,87.51
2023-03-06T07:18:28.537Z,87.61
2023-03-06T07:19:28.537Z,87.36
2023-03-06T07:20:28.537Z,87.15
2023-03-06T07:21:28.533Z,86.82
2023-03-06T07:22:31.927Z,86.61
2023-03-06T07:23:28.546Z,86.61
2023-03-06T07:24:28.492Z,86.51
2023-03-06T07:25:28.476Z,86.29
2023-03-06T07:26:28.470Z,86.29
2023-03-06T07:27:28.680Z,86.19
2023-03-06T07:28:28.477Z,86.15
2023-03-06T07:29:28.432Z,86.04
2023-03-06T07:30:28.489Z,86.04
2023-03-06T07:31:28.544Z,85.83
2023-03-06T07:32:28.449Z,85.83
2023-03-06T07:33:28.412Z,85.93
2023-03-06T07:34:28.414Z,86.15
2023-03-06T07:35:28.392Z,86.04
2023-03-06T07:36:28.359Z,85.93
2023-03-06T07:37:28.346Z,85.83
2023-03-06T07:38:28.367Z,85.72
2023-03-06T07:39:28.340Z,85.83
2023-03-06T07:40:28.309Z,85.83
2023-03-06T07:41:28.308Z,85.61
2023-03-06T07:42:28.339Z,85.47
2023-03-06T07:43:28.383Z,85.15
2023-03-06T07:44:28.280Z,85.15
2023-03-06T07:45:28.285Z,85.04
2023-03-06T07:46:28.459Z,85.04
2023-03-06T07:47:28.240Z,84.94
2023-03-06T07:48:28.234Z,85.04
2023-03-06T07:49:28.223Z,85.04
2023-03-06T07:50:28.235Z,85.15
2023-03-06T07:51:28.223Z,84.94
2023-03-06T07:52:28.186Z,84.72
2023-03-06T07:53:28.192Z,84.83
2023-03-06T07:54:28.184Z,84.83
2023-03-06T07:55:28.171Z,84.58
2023-03-06T07:56:28.184Z,84.26
2023-03-06T07:57:28.143Z,84.26
2023-03-06T07:58:28.147Z,84.26
2023-03-06T07:59:28.116Z,84.05
2023-03-06T08:00:28.105Z,84.01
2023-03-06T08:01:28.113Z,83.80
2023-03-06T08:02:28.120Z,83.58
2023-03-06T08:03:28.124Z,83.37
2023-03-06T08:04:29.139Z,83.15
2023-03-06T08:05:28.079Z,82.94
2023-03-06T08:06:28.040Z,83.05
2023-03-06T08:07:28.036Z,83.01
2023-03-06T08:08:28.015Z,82.90
2023-03-06T08:09:28.037Z,82.45
2023-03-06T08:10:28.008Z,81.91
2023-03-06T08:11:28.002Z,81.59
2023-03-06T08:12:28.010Z,81.27
2023-03-06T08:13:27.979Z,81.16
2023-03-06T08:14:28.015Z,80.85
2023-03-06T08:15:27.950Z,80.74
2023-03-06T08:16:27.954Z,81.06
2023-03-06T08:17:27.927Z,81.27
2023-03-06T08:18:27.914Z,81.27
2023-03-06T08:19:27.924Z,81.16
2023-03-06T08:20:27.922Z,81.59
2023-03-06T08:21:27.866Z,81.59
2023-03-06T08:22:27.868Z,81.06
2023-03-06T08:23:27.894Z,81.49
2023-03-06T08:24:27.836Z,81.27
2023-03-06T08:25:27.856Z,81.16
2023-03-06T08:26:27.854Z,81.38
2023-03-06T08:27:27.822Z,81.49
2023-03-06T08:28:27.807Z,81.41
2023-03-06T08:29:27.816Z,81.38
2023-03-06T08:30:27.768Z,81.49
2023-03-06T08:31:27.901Z,81.38
2023-03-06T08:32:27.875Z,81.16
2023-03-06T08:33:27.821Z,81.27
2023-03-06T08:34:27.736Z,81.27
2023-03-06T08:35:27.737Z,80.95
2023-03-06T08:36:27.924Z,81.27
2023-03-06T08:37:27.874Z,81.24
2023-03-06T08:38:28.271Z,81.02
2023-03-06T08:39:27.692Z,80.81
2023-03-06T08:40:27.667Z,80.49
2023-03-06T08:41:27.689Z,80.24
2023-03-06T08:42:27.678Z,79.89
2023-03-06T08:43:27.767Z,79.36
2023-03-06T08:44:27.650Z,79.11
2023-03-06T08:45:27.643Z,79.14
2023-03-06T08:46:27.636Z,79.14
2023-03-06T08:47:27.607Z,78.90
2023-03-06T08:48:27.611Z,78.05
2023-03-06T08:49:27.585Z,77.94
2023-03-06T08:50:27.572Z,78.12
2023-03-06T08:51:27.551Z,77.48
2023-03-06T08:52:27.539Z,76.78
2023-03-06T08:53:41.640Z,78.16
2023-03-06T08:54:27.524Z,78.26
2023-03-06T08:55:27.541Z,78.19
2023-03-06T08:56:27.530Z,76.60
2023-03-06T08:57:27.490Z,75.82
2023-03-06T08:58:27.498Z,75.04
2023-03-06T08:59:27.511Z,74.20
2023-03-06T09:00:27.511Z,74.06
2023-03-06T09:01:27.517Z,73.60
2023-03-06T09:02:27.486Z,73.71
2023-03-06T09:03:27.431Z,74.30
2023-03-06T09:04:27.397Z,75.04
2023-03-06T09:05:27.418Z,76.14
2023-03-06T09:06:27.390Z,75.89
2023-03-06T09:07:28.224Z,75.15
2023-03-06T09:08:27.394Z,75.15
2023-03-06T09:09:27.362Z,75.12
2023-03-06T09:10:27.385Z,74.34
2023-03-06T09:11:27.337Z,74.06
2023-03-06T09:12:29.274Z,74.38
2023-03-06T09:13:27.420Z,74.59
2023-03-06T09:14:27.302Z,74.55
2023-03-06T09:15:27.307Z,74.10
2023-03-06T09:16:27.362Z,73.68
2023-03-06T09:17:27.359Z,73.49
2023-03-06T09:18:27.250Z,74.02
2023-03-06T09:19:27.255Z,73.57
2023-03-06T09:20:27.229Z,72.78
2023-03-06T09:21:27.223Z,73.77
2023-03-06T09:22:27.235Z,74.69
2023-03-06T09:23:27.234Z,75.12
2023-03-06T09:24:27.193Z,74.48
2023-03-06T09:25:27.175Z,74.59
2023-03-06T09:26:39.671Z,74.84
2023-03-06T09:27:27.170Z,74.69
2023-03-06T09:28:27.757Z,74.27
2023-03-06T09:29:27.143Z,73.95
2023-03-06T09:30:27.127Z,73.60
2023-03-06T09:31:27.134Z,72.83
2023-03-06T09:32:27.154Z,71.66
2023-03-06T09:33:27.095Z,71.98
2023-03-06T09:34:27.111Z,73.07
2023-03-06T09:35:27.306Z,73.92
2023-03-06T09:36:27.058Z,72.86
2023-03-06T09:37:27.112Z,72.97
2023-03-06T09:38:27.078Z,72.86
2023-03-06T09:39:27.086Z,72.93
2023-03-06T09:40:27.621Z,72.22
2023-03-06T09:41:27.124Z,72.44
2023-03-06T09:42:27.019Z,72.86
2023-03-06T09:43:26.985Z,73.74
2023-03-06T09:44:27.017Z,74.62
2023-03-06T09:45:26.959Z,74.69
2023-03-06T09:46:27.030Z,74.48
2023-03-06T09:47:27.132Z,74.80
2023-03-06T09:48:26.943Z,75.68
2023-03-06T09:49:26.928Z,76.32
2023-03-06T09:50:26.940Z,76.21
2023-03-06T09:51:26.910Z,76.10
2023-03-06T09:52:26.900Z,76.21
2023-03-06T09:53:26.889Z,76.07
2023-03-06T09:54:26.873Z,75.79
2023-03-06T09:55:26.885Z,75.57
2023-03-06T09:56:26.848Z,76.21
2023-03-06T09:57:26.846Z,76.56
2023-03-06T09:58:26.819Z,76.95
2023-03-06T09:59:26.804Z,76.74
2023-03-06T10:00:26.854Z,76.39
2023-03-06T10:01:26.833Z,75.93
2023-03-06T10:02:26.959Z,75.43
2023-03-06T10:03:26.820Z,76.07
2023-03-06T10:04:26.748Z,76.07
2023-03-06T10:05:26.776Z,76.39
2023-03-06T10:06:26.751Z,76.39
2023-03-06T10:07:26.746Z,76.07
2023-03-06T10:08:26.724Z,76.07
2023-03-06T10:09:26.708Z,76.28
2023-03-06T10:10:26.708Z,76.28
2023-03-06T10:11:26.676Z,76.71
2023-03-06T10:12:26.699Z,76.07
2023-03-06T10:13:26.667Z,76.14
2023-03-06T10:14:27.278Z,75.93
2023-03-06T10:15:26.695Z,75.51
2023-03-06T10:16:26.696Z,74.95
2023-03-06T10:17:26.612Z,74.52
2023-03-06T10:18:26.609Z,74.41
2023-03-06T10:19:26.707Z,74.41
2023-03-06T10:20:26.650Z,74.84
2023-03-06T10:21:26.743Z,75.82
2023-03-06T10:22:26.567Z,75.40
2023-03-06T10:23:26.606Z,75.05
2023-03-06T10:24:26.556Z,75.79
2023-03-06T10:25:26.562Z,75.48
2023-03-06T10:26:26.696Z,75.16
2023-03-06T10:27:26.517Z,75.26
2023-03-06T10:28:26.510Z,74.41
2023-03-06T10:29:26.486Z,74.02
2023-03-06T10:30:26.630Z,74.27
2023-03-06T10:31:26.612Z,74.48
2023-03-06T10:32:29.038Z,74.69
2023-03-06T10:33:26.565Z,74.91
2023-03-06T10:34:26.482Z,74.80
2023-03-06T10:35:28.641Z,75.23
2023-03-06T10:36:27.201Z,75.68
2023-03-06T10:37:26.442Z,76.21
2023-03-06T10:38:26.432Z,76.74
2023-03-06T10:39:26.411Z,76.28
2023-03-06T10:40:27.360Z,76.14
2023-03-06T10:41:27.345Z,75.51
2023-03-06T10:42:28.827Z,75.40
2023-03-06T10:43:26.343Z,74.87
2023-03-06T10:44:26.339Z,75.16
2023-03-06T10:45:26.328Z,74.52
2023-03-06T10:46:26.454Z,74.20
2023-03-06T10:47:26.299Z,73.99
2023-03-06T10:48:26.309Z,73.46
2023-03-06T10:49:26.282Z,73.25
2023-03-06T10:50:26.277Z,73.28
2023-03-06T10:51:26.260Z,73.85
2023-03-06T10:52:26.299Z,75.01
2023-03-06T10:53:26.239Z,74.80
2023-03-06T10:54:26.261Z,74.91
2023-03-06T10:55:26.204Z,74.91
2023-03-06T10:56:26.203Z,75.51
2023-03-06T10:57:26.193Z,74.98
2023-03-06T10:58:26.173Z,74.59
2023-03-06T10:59:26.663Z,75.51
2023-03-06T11:00:26.211Z,75.40
2023-03-06T11:01:26.163Z,75.19
2023-03-06T11:02:26.144Z,74.66
2023-03-06T11:03:26.142Z,74.66
2023-03-06T11:04:26.870Z,74.98
2023-03-06T11:05:26.748Z,75.09
2023-03-06T11:06:26.107Z,75.16
2023-03-06T11:07:26.192Z,74.95
2023-03-06T11:08:26.063Z,74.52
2023-03-06T11:09:26.074Z,74.52
2023-03-06T11:10:26.045Z,74.63
2023-03-06T11:11:37.091Z,74.98
2023-03-06T11:12:26.061Z,74.63
2023-03-06T11:13:26.013Z,74.41
2023-03-06T11:14:27.706Z,74.49
2023-03-06T11:15:26.022Z,73.64
2023-03-06T11:16:26.197Z,73.50
2023-03-06T11:17:25.963Z,73.32
2023-03-06T11:18:25.988Z,73.46
2023-03-06T11:19:25.947Z,74.20
2023-03-06T11:20:25.950Z,74.38
2023-03-06T11:21:26.204Z,73.50
2023-03-06T11:22:26.826Z,72.58
2023-03-06T11:23:25.925Z,71.95
2023-03-06T11:24:25.907Z,72.44
2023-03-06T11:25:25.884Z,72.87
2023-03-06T11:26:25.917Z,73.05
2023-03-06T11:27:25.877Z,72.73
2023-03-06T11:28:25.851Z,72.27
2023-03-06T11:29:25.950Z,71.92
2023-03-06T11:30:25.832Z,71.50
2023-03-06T11:31:25.910Z,70.65
2023-03-06T11:32:25.948Z,70.55
2023-03-06T11:33:25.786Z,71.29
2023-03-06T11:34:25.804Z,71.08
2023-03-06T11:35:25.827Z,70.13
2023-03-06T11:36:25.787Z,70.73
2023-03-06T11:37:25.779Z,70.62
2023-03-06T11:38:25.754Z,70.94
2023-03-06T11:39:25.722Z,69.89
2023-03-06T11:40:25.722Z,69.43
2023-03-06T11:41:25.749Z,70.38
2023-03-06T11:42:25.733Z,69.64
2023-03-06T11:43:25.682Z,69.64
2023-03-06T11:44:25.695Z,69.54
2023-03-06T11:45:25.663Z,69.01
2023-03-06T11:46:25.723Z,68.83
2023-03-06T11:47:25.639Z,69.01
2023-03-06T11:48:25.631Z,69.36
2023-03-06T11:49:25.630Z,69.57
2023-03-06T11:50:25.684Z,69.60
2023-03-06T11:51:25.602Z,70.34
2023-03-06T11:52:25.582Z,70.65
2023-03-06T11:53:25.610Z,71.26
2023-03-06T11:54:25.574Z,70.52
2023-03-06T11:55:25.548Z,70.52
2023-03-06T11:56:25.655Z,70.20
2023-03-06T11:57:25.557Z,70.49
2023-03-06T11:58:25.917Z,69.67
2023-03-06T11:59:25.536Z,69.04
2023-03-06T12:00:26.329Z,70.10
2023-03-06T12:01:25.491Z,70.52
2023-03-06T12:02:25.585Z,70.38
2023-03-06T12:03:26.729Z,69.22
2023-03-06T12:04:25.664Z,68.90
2023-03-06T12:05:25.499Z,68.48
2023-03-06T12:06:25.461Z,68.93
2023-03-06T12:07:25.439Z,69.25
2023-03-06T12:08:25.405Z,70.03
2023-03-06T12:09:25.402Z,70.87
2023-03-06T12:10:25.429Z,71.08
2023-03-06T12:11:25.388Z,71.29
2023-03-06T12:12:25.381Z,71.01
2023-03-06T12:14:25.358Z,71.67
2023-03-06T12:15:25.341Z,72.41
2023-03-06T12:16:25.390Z,72.41
2023-03-06T12:17:25.303Z,72.52
2023-03-06T12:18:25.389Z,72.73
2023-03-06T12:19:25.327Z,72.41
2023-03-06T12:20:25.473Z,72.20
2023-03-06T12:21:25.380Z,72.66
2023-03-06T12:22:25.254Z,72.97
2023-03-06T12:23:25.303Z,73.75
2023-03-06T12:24:25.229Z,73.64
2023-03-06T12:25:25.219Z,73.43
2023-03-06T12:26:27.414Z,73.64
2023-03-06T12:27:25.218Z,74.03
2023-03-06T12:28:25.222Z,73.64
2023-03-06T12:29:25.889Z,73.85
2023-03-06T12:30:25.173Z,73.75
2023-03-06T12:31:25.206Z,74.07
2023-03-06T12:32:25.312Z,73.54
2023-03-06T12:33:25.131Z,73.43
2023-03-06T12:34:25.166Z,73.11
2023-03-06T12:35:25.189Z,73.19
2023-03-06T12:36:25.096Z,73.39
2023-03-06T12:37:25.299Z,73.08
2023-03-06T12:38:25.108Z,72.94
2023-03-06T12:39:25.064Z,72.31
2023-03-06T12:40:25.252Z,72.06
2023-03-06T12:41:25.126Z,71.64
2023-03-06T12:42:25.076Z,70.90
2023-03-06T12:43:25.034Z,71.29
2023-03-06T12:44:25.032Z,70.87
2023-03-06T12:45:25.014Z,70.03
2023-03-06T12:46:25.129Z,70.03
2023-03-06T12:47:24.977Z,69.92
2023-03-06T12:48:25.035Z,70.03
2023-03-06T12:49:31.953Z,70.13
2023-03-06T12:50:24.980Z,70.03
2023-03-06T12:51:28.006Z,69.92
2023-03-06T12:52:30.248Z,70.06
2023-03-06T12:53:26.071Z,70.26
2023-03-06T12:54:26.349Z,70.58